Time;durP1;ratioP1;P1;durP2;ratioP2;P2;SDS_P1;SDS_P2;PMS_P1;PMS_P2;Temp;Humidity;BMP_temperature;BMP_pressure;BME280_temperature;BME280_humidity;BME280_pressure;Samples;Min_cycle;Max_cycle;Signal;HPM_P1;HPM_P2
2021/08/13 00:00:47;;;;;;;29.20;22.37;;;;;;;19.85;100.00;101494.06;2616963;47;20929;-54
2021/08/13 00:03:17;;;;;;;34.20;24.53;;;;;;;19.85;100.00;101488.84;2617730;47;20385;-50
2021/08/13 00:05:47;;;;;;;35.90;25.53;;;;;;;19.77;100.00;101486.09;2617713;54;20858;-49
2021/08/13 00:08:16;;;;;;;38.17;30.07;;;;;;;19.70;100.00;101490.34;2617719;47;20399;-49
2021/08/13 00:10:47;;;;;;;37.63;27.80;;;;;;;19.72;100.00;101487.75;2617759;39;20764;-51
2021/08/13 00:13:16;;;;;;;35.47;28.33;;;;;;;19.75;100.00;101482.56;2617785;39;20455;-51
2021/08/13 00:15:46;;;;;;;35.50;27.00;;;;;;;19.64;100.00;101484.16;2617147;47;20376;-50
2021/08/13 00:18:16;;;;;;;37.10;26.53;;;;;;;19.75;100.00;101485.19;2618623;47;20898;-53
2021/08/13 00:20:45;;;;;;;40.70;24.33;;;;;;;19.63;100.00;101477.16;2618400;47;20430;-50
2021/08/13 00:23:15;;;;;;;31.90;24.40;;;;;;;19.54;100.00;101478.75;2619131;47;20399;-49
2021/08/13 00:25:44;;;;;;;31.90;22.60;;;;;;;19.51;100.00;101485.66;2618768;47;20408;-53
2021/08/13 00:28:15;;;;;;;40.60;29.17;;;;;;;19.53;100.00;101482.22;2619738;46;20420;-52
2021/08/13 00:30:45;;;;;;;35.10;24.43;;;;;;;19.68;100.00;101483.31;2619834;39;20763;-50
2021/08/13 00:33:14;;;;;;;30.10;21.77;;;;;;;19.68;100.00;101485.94;2619588;47;20400;-52
2021/08/13 00:35:44;;;;;;;26.40;18.37;;;;;;;19.62;100.00;101480.59;2618710;46;20454;-50
2021/08/13 00:38:13;;;;;;;26.50;18.50;;;;;;;19.66;100.00;101485.03;2619564;47;20404;-48
2021/08/13 00:40:43;;;;;;;26.00;17.47;;;;;;;19.70;100.00;101484.25;2620210;36;20449;-51
2021/08/13 00:43:12;;;;;;;25.20;17.87;;;;;;;19.60;100.00;101484.94;2619651;47;20866;-50
2021/08/13 00:45:43;;;;;;;27.73;16.53;;;;;;;19.58;100.00;101486.66;2636509;36;20443;-51
2021/08/13 00:48:13;;;;;;;21.23;15.43;;;;;;;19.69;100.00;101487.72;2618165;46;20412;-50
2021/08/13 00:50:42;;;;;;;21.80;17.07;;;;;;;19.75;100.00;101487.81;2618016;46;20454;-51
2021/08/13 00:53:12;;;;;;;22.60;18.30;;;;;;;19.82;100.00;101489.66;2618529;46;20400;-48
2021/08/13 00:55:42;;;;;;;24.37;17.77;;;;;;;19.80;100.00;101488.75;2636410;36;20671;-50
2021/08/13 00:58:11;;;;;;;25.90;20.10;;;;;;;19.97;100.00;101496.00;2618530;47;20396;-53
2021/08/13 01:00:43;;;;;;;29.90;20.57;;;;;;;19.99;100.00;101486.41;2636631;36;20535;-50
2021/08/13 01:03:13;;;;;;;32.40;20.10;;;;;;;19.94;100.00;101493.31;2618527;46;20423;-53
2021/08/13 01:05:42;;;;;;;31.40;21.80;;;;;;;19.81;100.00;101498.38;2642567;36;20894;-48
2021/08/13 01:08:12;;;;;;;31.40;21.80;;;;;;;19.86;100.00;101484.47;2618668;47;20416;-48
2021/08/13 01:10:48;;;;;;;27.40;20.57;;;;;;;19.82;100.00;101487.03;2618936;36;20429;-53
2021/08/13 01:13:24;;;;;;;25.23;19.43;;;;;;;19.82;100.00;101488.78;2616757;46;20398;-51
2021/08/13 01:15:59;;;;;;;28.87;20.07;;;;;;;19.76;100.00;101494.81;2617819;47;20408;-51
2021/08/13 01:18:33;;;;;;;26.83;18.87;;;;;;;19.70;100.00;101492.09;2620287;39;20717;-50
2021/08/13 01:21:21;;;;;;;50.50;35.60;;;;;;;19.67;100.00;101505.13;2620937;36;20801;-53
2021/08/13 01:23:54;;;;;;;56.03;40.00;;;;;;;19.72;100.00;101498.22;2618817;46;20392;-50
2021/08/13 01:26:25;;;;;;;43.57;30.37;;;;;;;19.78;100.00;101502.66;2621679;36;20424;-50
2021/08/13 01:29:03;;;;;;;29.00;22.30;;;;;;;19.62;100.00;101498.91;2619860;46;20416;-48
2021/08/13 01:31:41;;;;;;;37.43;22.50;;;;;;;19.56;100.00;101503.22;2636996;36;20459;-54
2021/08/13 01:34:13;;;;;;;26.77;20.58;;;;;;;19.52;100.00;101496.16;2618942;46;20425;-51
2021/08/13 01:36:44;;;;;;;28.07;19.47;;;;;;;19.50;100.00;101497.91;2619184;47;20652;-52
2021/08/13 01:39:13;;;;;;;29.97;18.50;;;;;;;19.55;100.00;101490.97;2636720;36;21837;-53
2021/08/13 01:41:43;;;;;;;30.88;19.80;;;;;;;19.55;100.00;101493.59;2619480;46;20467;-50
2021/08/13 01:44:14;;;;;;;26.00;20.73;;;;;;;19.46;100.00;101496.06;2619002;46;20180;-50
2021/08/13 01:46:45;;;;;;;24.37;18.67;;;;;;;19.41;100.00;101492.50;2619483;46;20435;-50
2021/08/13 01:49:17;;;;;;;29.60;20.63;;;;;;;19.47;100.00;101496.97;2641604;36;20436;-48
2021/08/13 01:51:49;;;;;;;26.87;19.77;;;;;;;19.51;100.00;101504.00;2619772;39;20744;-49
2021/08/13 01:54:19;;;;;;;28.33;19.40;;;;;;;19.53;100.00;101497.06;2638627;36;20407;-53
2021/08/13 01:56:48;;;;;;;28.83;20.05;;;;;;;19.45;100.00;101499.53;2618120;47;20487;-50
2021/08/13 01:59:18;;;;;;;25.10;17.33;;;;;;;19.30;100.00;101502.78;2618848;47;20632;-51
2021/08/13 02:01:49;;;;;;;23.67;17.80;;;;;;;19.30;100.00;101503.63;2619701;46;20427;-52
2021/08/13 02:04:21;;;;;;;23.70;18.13;;;;;;;19.22;100.00;101507.88;2641528;36;20413;-51
2021/08/13 02:06:51;;;;;;;23.20;18.67;;;;;;;19.15;100.00;101506.00;2618631;46;20404;-52
2021/08/13 02:09:24;;;;;;;23.40;18.10;;;;;;;19.21;100.00;101503.50;2618419;47;20455;-51
2021/08/13 02:11:54;;;;;;;24.00;18.52;;;;;;;19.25;100.00;101509.66;2636137;36;20518;-51
2021/08/13 02:14:24;;;;;;;24.47;18.70;;;;;;;19.38;100.00;101505.53;2624815;36;20222;-51
2021/08/13 02:16:55;;;;;;;23.83;18.10;;;;;;;19.33;100.00;101505.44;2618502;39;20802;-49
2021/08/13 02:19:30;;;;;;;26.73;18.63;;;;;;;19.27;100.00;101503.59;2636963;36;20437;-47
2021/08/13 02:22:00;;;;;;;22.83;18.20;;;;;;;19.27;100.00;101505.31;2618432;47;20435;-48
2021/08/13 02:24:30;;;;;;;22.93;18.37;;;;;;;19.25;100.00;101513.16;2617788;47;20404;-53
2021/08/13 02:27:00;;;;;;;25.27;17.90;;;;;;;19.18;100.00;101519.16;2618137;47;20383;-49
2021/08/13 02:29:30;;;;;;;26.13;18.47;;;;;;;19.29;100.00;101512.34;2618118;39;20843;-51
2021/08/13 02:31:59;;;;;;;24.88;18.50;;;;;;;19.29;100.00;101519.34;2618330;47;20416;-49
2021/08/13 02:34:30;;;;;;;28.67;19.33;;;;;;;19.34;100.00;101516.78;2618295;39;20524;-50
2021/08/13 02:37:05;;;;;;;29.43;18.90;;;;;;;19.48;100.00;101504.81;2618167;47;20391;-48
2021/08/13 02:39:42;;;;;;;26.43;19.60;;;;;;;19.56;100.00;101492.75;2618111;47;20399;-53
2021/08/13 02:42:14;;;;;;;22.53;17.00;;;;;;;19.63;100.00;101498.94;2619003;39;20759;-52
2021/08/13 02:44:46;;;;;;;27.67;19.20;;;;;;;19.58;100.00;101495.38;2619028;46;20419;-53
2021/08/13 02:47:16;;;;;;;24.90;18.77;;;;;;;19.50;100.00;101497.91;2618345;46;20403;-48
2021/08/13 02:49:51;;;;;;;28.70;21.30;;;;;;;19.46;100.00;101505.63;2619949;36;20428;-52
2021/08/13 02:52:22;;;;;;;26.20;19.07;;;;;;;19.53;100.00;101500.53;2618359;46;20426;-52
2021/08/13 02:54:52;;;;;;;22.83;17.60;;;;;;;19.59;100.00;101496.28;2618003;46;20403;-53
2021/08/13 02:57:24;;;;;;;22.30;17.67;;;;;;;19.59;100.00;101493.66;2618159;47;20396;-50
2021/08/13 02:59:54;;;;;;;23.27;17.83;;;;;;;19.60;100.00;101492.78;2618214;47;20376;-50
2021/08/13 03:02:24;;;;;;;24.80;18.90;;;;;;;19.61;100.00;101489.31;2618426;47;20443;-49
2021/08/13 03:04:57;;;;;;;27.33;18.93;;;;;;;19.60;100.00;101487.56;2618035;47;20910;-52
2021/08/13 03:07:27;;;;;;;26.77;19.60;;;;;;;19.70;100.00;101479.00;2619426;46;20391;-51
2021/08/13 03:09:57;;;;;;;29.00;18.90;;;;;;;19.75;100.00;101479.97;2618138;46;20392;-50
2021/08/13 03:12:26;;;;;;;24.27;19.47;;;;;;;19.62;100.00;101475.38;2619349;46;20445;-52
2021/08/13 03:14:56;;;;;;;28.37;19.50;;;;;;;19.62;100.00;101480.59;2619140;46;20423;-51
2021/08/13 03:17:26;;;;;;;28.10;20.67;;;;;;;19.62;100.00;101485.84;2619293;47;20523;-50
2021/08/13 03:19:57;;;;;;;27.38;20.02;;;;;;;19.51;100.00;101486.56;2617884;47;20415;-52
2021/08/13 03:22:26;;;;;;;24.63;19.50;;;;;;;19.53;100.00;101474.38;2618057;47;20166;-48
2021/08/13 03:24:56;;;;;;;27.57;21.37;;;;;;;19.47;100.00;101471.66;2640847;36;20885;-52
2021/08/13 03:27:26;;;;;;;29.45;21.25;;;;;;;19.38;100.00;101476.75;2617770;47;20455;-51
2021/08/13 03:29:55;;;;;;;32.73;21.10;;;;;;;19.43;100.00;101475.06;2636051;36;20208;-52
2021/08/13 03:32:25;;;;;;;28.37;21.23;;;;;;;19.34;100.00;101482.78;2618222;39;20731;-51
2021/08/13 03:34:54;;;;;;;26.60;21.63;;;;;;;19.45;100.00;101483.84;2636482;36;20463;-52
2021/08/13 03:37:25;;;;;;;29.50;22.40;;;;;;;19.50;100.00;101476.97;2617608;47;20405;-49
2021/08/13 03:39:55;;;;;;;30.70;23.43;;;;;;;19.26;100.00;101488.75;2617667;47;20388;-52
2021/08/13 03:42:24;;;;;;;33.60;25.90;;;;;;;19.10;100.00;101491.94;2617829;47;20430;-53
2021/08/13 03:44:54;;;;;;;37.57;26.70;;;;;;;18.81;100.00;101505.34;2617573;47;20404;-50
2021/08/13 03:47:23;;;;;;;29.93;23.30;;;;;;;18.78;100.00;101511.38;2617668;47;20403;-50
2021/08/13 03:49:53;;;;;;;35.10;24.47;;;;;;;18.75;100.00;101520.06;2619919;36;20434;-50
2021/08/13 03:52:22;;;;;;;32.80;25.20;;;;;;;18.71;100.00;101515.59;2617627;47;20455;-50
2021/08/13 03:54:53;;;;;;;34.33;25.27;;;;;;;18.66;100.00;101522.47;2618054;39;20477;-48
2021/08/13 03:57:23;;;;;;;37.50;27.80;;;;;;;18.66;100.00;101521.59;2617643;47;20618;-50
2021/08/13 03:59:52;;;;;;;33.77;23.77;;;;;;;18.64;100.00;101516.34;2618150;39;20494;-52
2021/08/13 04:02:22;;;;;;;35.60;25.67;;;;;;;18.71;100.00;101510.38;2618676;46;20415;-51
2021/08/13 04:04:51;;;;;;;31.73;24.17;;;;;;;18.76;100.00;101502.63;2618351;46;20400;-50
2021/08/13 04:07:21;;;;;;;64.30;42.47;;;;;;;18.83;100.00;101514.09;2618556;47;20875;-48
2021/08/13 04:09:51;;;;;;;40.20;28.77;;;;;;;18.95;100.00;101513.44;2618349;47;20416;-48
2021/08/13 04:12:21;;;;;;;39.80;28.73;;;;;;;19.02;100.00;101516.22;2618566;46;20419;-48
2021/08/13 04:14:51;;;;;;;54.50;36.80;;;;;;;19.13;100.00;101513.81;2618745;46;20396;-51
2021/08/13 04:17:21;;;;;;;74.30;49.70;;;;;;;19.14;100.00;101519.94;2620220;39;20705;-50
2021/08/13 04:19:50;;;;;;;40.97;30.30;;;;;;;19.04;100.00;101526.72;2618598;39;20469;-49
2021/08/13 04:22:20;;;;;;;35.87;26.10;;;;;;;18.79;100.00;101533.16;2619120;46;20468;-53
2021/08/13 04:24:50;;;;;;;35.57;26.00;;;;;;;18.69;100.00;101538.22;2618143;46;20412;-49
2021/08/13 04:27:19;;;;;;;56.87;41.60;;;;;;;18.74;100.00;101541.81;2617939;47;20415;-50
2021/08/13 04:29:51;;;;;;;72.43;51.53;;;;;;;19.13;100.00;101531.25;2618307;46;20404;-49
2021/08/13 04:32:20;;;;;;;40.20;28.63;;;;;;;19.15;100.00;101526.91;2619897;46;20448;-49
2021/08/13 04:34:50;;;;;;;38.40;27.63;;;;;;;18.98;100.00;101527.44;2620842;36;20463;-50
2021/08/13 04:37:19;;;;;;;59.70;40.13;;;;;;;19.17;100.00;101525.19;2619136;39;20761;-52
2021/08/13 04:39:49;;;;;;;75.47;50.73;;;;;;;19.29;100.00;101517.56;2641241;36;20824;-52
2021/08/13 04:42:18;;;;;;;52.63;37.60;;;;;;;19.35;100.00;101510.69;2617394;54;20906;-51
2021/08/13 04:44:49;;;;;;;40.93;29.97;;;;;;;19.41;100.00;101513.41;2618204;47;20447;-52
2021/08/13 04:47:37;;;;;;;48.33;35.08;;;;;;;19.36;100.00;101509.84;2618394;47;20928;-49
2021/08/13 04:50:08;;;;;;;45.73;33.63;;;;;;;19.35;100.00;101513.31;2618287;46;20165;-48
2021/08/13 04:52:44;;;;;;;40.23;29.40;;;;;;;19.32;100.00;101516.75;2618642;46;20434;-48
2021/08/13 04:55:15;;;;;;;40.67;29.13;;;;;;;19.20;100.00;101525.28;2637202;36;20764;-51
2021/08/13 04:57:44;;;;;;;39.07;28.20;;;;;;;19.19;100.00;101518.28;2618036;39;20878;-54
2021/08/13 05:00:16;;;;;;;34.10;26.07;;;;;;;19.16;100.00;101513.88;2618589;39;20783;-49
2021/08/13 05:02:46;;;;;;;36.30;25.33;;;;;;;19.20;100.00;101525.28;2618334;46;20463;-53
2021/08/13 05:05:16;;;;;;;38.00;27.37;;;;;;;19.32;100.00;101518.50;2617942;47;20496;-51
2021/08/13 05:07:45;;;;;;;36.00;26.30;;;;;;;19.39;100.00;101521.25;2618299;47;20399;-50
2021/08/13 05:10:18;;;;;;;31.73;24.37;;;;;;;19.37;100.00;101516.81;2636655;36;20536;-52
2021/08/13 05:12:50;;;;;;;35.23;24.70;;;;;;;19.37;100.00;101515.09;2618096;46;20438;-49
2021/08/13 05:15:21;;;;;;;41.20;25.80;;;;;;;19.42;100.00;101513.47;2638756;36;20436;-51
2021/08/13 05:17:51;;;;;;;36.67;25.83;;;;;;;19.43;100.00;101516.94;2618445;46;20404;-49
2021/08/13 05:20:24;;;;;;;31.60;24.30;;;;;;;19.45;100.00;101522.19;2636199;36;20191;-48
2021/08/13 05:22:53;;;;;;;37.50;26.97;;;;;;;19.48;100.00;101517.91;2618356;54;20404;-50
2021/08/13 05:25:23;;;;;;;34.77;25.87;;;;;;;19.47;100.00;101517.91;2617735;54;20430;-51
2021/08/13 05:27:52;;;;;;;35.73;26.20;;;;;;;19.34;100.00;101529.88;2618527;46;20402;-53
2021/08/13 05:30:24;;;;;;;36.80;26.07;;;;;;;19.20;100.00;101538.34;2624396;36;20432;-52
2021/08/13 05:32:53;;;;;;;40.07;27.13;;;;;;;19.26;100.00;101535.84;2618264;46;20411;-49
2021/08/13 05:35:23;;;;;;;39.67;26.00;;;;;;;19.23;100.00;101533.16;2617837;46;20430;-49
2021/08/13 05:37:52;;;;;;;33.30;25.58;;;;;;;19.27;100.00;101540.22;2618175;46;20396;-51
2021/08/13 05:40:23;;;;;;;36.20;24.90;;;;;;;19.35;100.00;101536.84;2636204;36;20226;-50
2021/08/13 05:42:52;;;;;;;36.37;24.93;;;;;;;19.41;100.00;101539.59;2618130;46;20170;-50
2021/08/13 05:45:23;;;;;;;43.67;26.80;;;;;;;19.47;100.00;101537.06;2626119;36;20757;-50
2021/08/13 05:47:52;;;;;;;41.45;27.60;;;;;;;19.58;100.00;101531.16;2619460;47;20404;-51
2021/08/13 05:50:23;;;;;;;44.45;30.02;;;;;;;19.70;100.00;101536.59;2618902;46;20159;-50
2021/08/13 05:52:52;;;;;;;36.00;25.33;;;;;;;19.72;100.00;101534.88;2619217;47;20154;-47
2021/08/13 05:55:22;;;;;;;40.03;27.10;;;;;;;19.95;100.00;101532.63;2629375;36;20429;-51
2021/08/13 05:57:51;;;;;;;36.50;26.80;;;;;;;20.00;100.00;101524.84;2619822;46;20387;-51
2021/08/13 06:00:23;;;;;;;50.63;28.20;;;;;;;20.03;100.00;101519.66;2619770;36;20454;-49
2021/08/13 06:02:58;;;;;;;41.97;27.30;;;;;;;20.17;100.00;101524.22;2618341;47;20408;-50
2021/08/13 06:05:28;;;;;;;35.20;24.10;;;;;;;20.22;100.00;101523.44;2618811;47;20931;-51
2021/08/13 06:07:57;;;;;;;39.17;26.27;;;;;;;20.32;100.00;101524.44;2619712;46;20400;-48
2021/08/13 06:10:26;;;;;;;39.03;25.20;;;;;;;20.37;100.00;101527.97;2621873;36;20783;-49
2021/08/13 06:12:56;;;;;;;32.22;24.42;;;;;;;20.40;100.00;101521.03;2619588;47;21333;-50
2021/08/13 06:15:27;;;;;;;35.97;24.50;;;;;;;20.55;100.00;101526.47;2618513;46;20170;-50
2021/08/13 06:17:56;;;;;;;40.70;27.27;;;;;;;20.51;100.00;101516.81;2619764;47;20403;-49
2021/08/13 06:20:26;;;;;;;37.40;23.58;;;;;;;20.52;100.00;101518.56;2619067;39;20757;-51
2021/08/13 06:22:56;;;;;;;31.67;23.13;;;;;;;20.61;100.00;101509.94;2619611;46;20147;-50
2021/08/13 06:25:25;;;;;;;32.80;21.67;;;;;;;20.80;100.00;101504.91;2617958;46;20387;-49
2021/08/13 06:27:55;;;;;;;57.75;26.55;;;;;;;20.68;100.00;101495.16;2618512;46;20381;-52
2021/08/13 06:30:26;;;;;;;33.50;19.67;;;;;;;20.82;100.00;101490.94;2617954;46;20155;-50
2021/08/13 06:32:57;;;;;;;28.98;19.17;;;;;;;20.79;100.00;101488.28;2618547;46;20421;-49
2021/08/13 06:35:26;;;;;;;54.47;24.43;;;;;;;20.94;100.00;101497.22;2617700;46;20156;-49
2021/08/13 06:37:57;;;;;;;115.57;35.23;;;;;;;20.93;100.00;101498.06;2618444;46;20399;-48
2021/08/13 06:40:27;;;;;;;140.80;40.73;;;;;;;20.98;100.00;101488.53;2619168;47;20392;-49
2021/08/13 06:42:57;;;;;;;29.40;16.50;;;;;;;21.00;100.00;101485.06;2619504;46;20395;-52
2021/08/13 06:45:28;;;;;;;31.60;14.80;;;;;;;21.10;100.00;101480.78;2618223;39;20729;-52
2021/08/13 06:47:58;;;;;;;23.20;15.87;;;;;;;21.18;100.00;101481.72;2619286;47;20503;-51
2021/08/13 06:50:27;;;;;;;35.50;15.17;;;;;;;21.32;100.00;101475.69;2617882;46;20407;-49
2021/08/13 06:52:57;;;;;;;28.83;13.43;;;;;;;21.35;100.00;101470.50;2619607;46;20427;-51
2021/08/13 06:55:26;;;;;;;14.77;9.43;;;;;;;21.34;100.00;101470.47;2638216;36;20436;-47
2021/08/13 06:57:56;;;;;;;18.70;9.67;;;;;;;21.42;100.00;101476.66;2618155;46;20391;-53
2021/08/13 07:00:25;;;;;;;14.23;9.23;;;;;;;21.41;100.00;101467.03;2617407;47;20438;-50
2021/08/13 07:02:56;;;;;;;16.00;9.10;;;;;;;21.51;100.00;101482.00;2617968;54;20874;-53
2021/08/13 07:05:27;;;;;;;16.17;10.17;;;;;;;21.53;100.00;101476.75;2617755;46;20435;-51
2021/08/13 07:07:57;;;;;;;36.10;15.40;;;;;;;21.61;100.00;101482.94;2617930;47;20384;-47
2021/08/13 07:10:26;;;;;;;15.17;9.30;;;;;;;21.70;100.00;101488.28;2617723;47;20392;-50
2021/08/13 07:12:56;;;;;;;43.45;17.40;;;;;;;21.77;100.00;101477.81;2618060;47;20441;-49
2021/08/13 07:15:26;;;;;;;43.90;17.90;;;;;;;21.86;100.00;101467.38;2638939;36;20194;-49
2021/08/13 07:17:57;;;;;;;17.30;9.90;;;;;;;21.91;100.00;101470.03;2617969;47;20408;-49
2021/08/13 07:20:26;;;;;;;26.53;11.90;;;;;;;22.06;100.00;101474.50;2617664;47;20419;-52
2021/08/13 07:22:56;;;;;;;50.10;19.93;;;;;;;22.07;100.00;101487.63;2618724;39;20775;-54
2021/08/13 07:25:26;;;;;;;16.47;9.40;;;;;;;22.04;100.00;101490.25;2636868;36;20408;-50
2021/08/13 07:27:55;;;;;;;17.27;11.00;;;;;;;22.07;100.00;101486.75;2615587;47;20905;-52
2021/08/13 07:30:25;;;;;;;15.17;8.80;;;;;;;21.98;100.00;101483.22;2623577;36;21628;-52
2021/08/13 07:32:56;;;;;;;19.37;9.90;;;;;;;22.00;100.00;101477.97;2617873;47;20412;-51
2021/08/13 07:35:25;;;;;;;14.43;9.57;;;;;;;22.00;100.00;101480.59;2618838;36;20447;-49
2021/08/13 07:37:55;;;;;;;19.60;11.40;;;;;;;21.96;100.00;101492.81;2617989;47;20380;-49
2021/08/13 07:40:24;;;;;;;14.33;10.00;;;;;;;22.12;100.00;101485.03;2636021;36;20451;-49
2021/08/13 07:42:54;;;;;;;19.70;10.60;;;;;;;22.20;100.00;101475.44;2617752;47;20926;-50
2021/08/13 07:45:24;;;;;;;12.88;8.60;;;;;;;22.26;100.00;101480.72;2617505;54;20429;-51
2021/08/13 07:47:54;;;;;;;43.30;17.83;;;;;;;22.35;100.00;101476.38;2618017;47;20403;-51
2021/08/13 07:50:25;;;;;;;19.77;11.30;;;;;;;22.41;100.00;101480.78;2635533;36;20596;-49
2021/08/13 07:52:56;;;;;;;15.93;9.80;;;;;;;22.42;100.00;101478.16;2618037;47;20506;-51
2021/08/13 07:55:26;;;;;;;14.80;9.10;;;;;;;22.51;100.00;101472.06;2617180;47;20427;-53
2021/08/13 07:57:56;;;;;;;16.60;9.37;;;;;;;22.50;100.00;101465.91;2617983;47;20384;-50
2021/08/13 08:00:25;;;;;;;26.40;13.40;;;;;;;22.51;100.00;101469.44;2636709;36;20425;-51
2021/08/13 08:02:55;;;;;;;15.83;9.70;;;;;;;22.60;100.00;101471.25;2617367;47;21249;-51
2021/08/13 08:05:26;;;;;;;40.83;15.50;;;;;;;22.67;100.00;101467.75;2635404;36;20435;-54
2021/08/13 08:07:55;;;;;;;18.30;9.68;;;;;;;22.78;100.00;101460.75;2617723;47;20407;-52
2021/08/13 08:10:26;;;;;;;36.72;14.73;;;;;;;22.76;100.00;101467.75;2639191;36;20219;-51
2021/08/13 08:12:55;;;;;;;62.40;20.77;;;;;;;22.82;100.00;101473.91;2617564;47;20155;-48
2021/08/13 08:15:25;;;;;;;24.83;11.40;;;;;;;23.05;100.00;101487.09;2620265;36;21702;-52
2021/08/13 08:17:54;;;;;;;22.63;10.70;;;;;;;23.01;100.00;101480.97;2617830;47;20384;-52
2021/08/13 08:20:25;;;;;;;15.52;10.48;;;;;;;23.03;100.00;101481.84;2617275;47;20445;-55
2021/08/13 08:22:55;;;;;;;27.83;11.93;;;;;;;23.18;100.00;101480.97;2617731;47;20158;-50
2021/08/13 08:25:24;;;;;;;46.03;16.60;;;;;;;23.21;100.00;101482.72;2622507;36;20440;-48
2021/08/13 08:27:54;;;;;;;12.50;8.67;;;;;;;23.35;100.00;101476.63;2617657;47;20392;-49
2021/08/13 08:30:23;;;;;;;18.60;10.10;;;;;;;23.43;100.00;101477.50;2635736;36;20438;-49
2021/08/13 08:32:53;;;;;;;23.67;11.63;;;;;;;23.51;100.00;101483.66;2617730;47;20490;-50
2021/08/13 08:35:23;;;;;;;47.97;19.03;;;;;;;23.41;100.00;101480.13;2617938;39;20720;-52
2021/08/13 08:37:55;;;;;;;71.63;21.87;;;;;;;23.44;100.00;101488.03;2617959;47;20412;-52
2021/08/13 08:40:27;;;;;;;45.13;18.50;;;;;;;23.40;100.00;101480.13;2622556;36;20431;-53
2021/08/13 08:42:58;;;;;;;19.60;10.33;;;;;;;23.40;100.00;101474.88;2619041;47;20411;-53
2021/08/13 08:45:29;;;;;;;37.27;15.33;;;;;;;23.46;100.00;101474.88;2617347;47;20392;-50
2021/08/13 08:48:02;;;;;;;32.33;14.57;;;;;;;23.53;100.00;101471.34;2618020;47;20417;-53
2021/08/13 08:50:34;;;;;;;66.77;23.43;;;;;;;23.47;100.00;101471.34;2618457;46;20163;-49
2021/08/13 08:53:09;;;;;;;25.70;13.17;;;;;;;23.30;100.00;101463.44;2620062;47;20440;-50
2021/08/13 08:55:39;;;;;;;35.03;15.60;;;;;;;23.53;100.00;101459.94;2618903;46;20516;-51
2021/08/13 08:58:10;;;;;;;36.13;17.23;;;;;;;23.68;100.00;101453.78;2618724;46;20404;-49
2021/08/13 09:00:39;;;;;;;17.83;10.33;;;;;;;23.62;100.00;101453.81;2618987;47;20461;-52
2021/08/13 09:03:09;;;;;;;25.27;11.50;;;;;;;23.81;100.00;101452.88;2620119;39;20756;-52
2021/08/13 09:05:39;;;;;;;45.83;20.40;;;;;;;23.91;100.00;101451.09;2620682;36;20480;-49
2021/08/13 09:08:10;;;;;;;27.75;14.57;;;;;;;23.84;100.00;101450.22;2619673;47;20892;-52
2021/08/13 09:10:40;;;;;;;19.50;13.30;;;;;;;23.69;100.00;101450.28;2618485;46;20173;-49
2021/08/13 09:13:10;;;;;;;12.27;9.53;;;;;;;23.74;100.00;101443.25;2618813;47;20433;-52
2021/08/13 09:15:42;;;;;;;21.93;12.63;;;;;;;23.86;100.00;101453.75;2636556;36;20447;-50
2021/08/13 09:18:16;;;;;;;17.73;9.60;;;;;;;24.20;100.00;101462.44;2618396;47;20512;-51
2021/08/13 09:20:49;;;;;;;14.13;9.50;;;;;;;24.21;100.00;101469.47;2619893;36;20476;-50
2021/08/13 09:23:42;;;;;;;33.30;14.93;;;;;;;24.11;100.00;101466.84;2618343;54;20899;-48
2021/08/13 09:26:13;;;;;;;42.43;17.87;;;;;;;23.81;100.00;101459.88;2635700;36;20474;-51
2021/08/13 09:28:45;;;;;;;28.60;14.53;;;;;;;23.93;100.00;101470.41;2618030;46;20424;-50
2021/08/13 09:31:17;;;;;;;24.67;14.40;;;;;;;23.95;100.00;101475.66;2622017;36;20983;-51
2021/08/13 09:33:48;;;;;;;19.67;11.10;;;;;;;23.97;100.00;101473.91;2618020;47;20146;-50
2021/08/13 09:36:22;;;;;;;26.75;14.02;;;;;;;24.08;100.00;101471.25;2636025;36;20474;-52
2021/08/13 09:39:04;;;;;;;18.33;11.80;;;;;;;24.18;100.00;101472.09;2618430;47;20143;-53
2021/08/13 09:41:45;;;;;;;16.93;11.07;;;;;;;24.38;100.00;101470.28;2620327;36;20489;-52
2021/08/13 09:44:15;;;;;;;17.07;11.10;;;;;;;24.28;100.00;101471.19;2636764;36;20370;-49
2021/08/13 09:46:58;;;;;;;13.20;9.60;;;;;;;24.24;100.00;101472.97;2618794;39;20549;-49
2021/08/13 09:49:28;;;;;;;13.67;9.73;;;;;;;24.27;100.00;101470.28;2637005;36;21453;-47
2021/08/13 09:51:58;;;;;;;22.47;10.73;;;;;;;24.34;100.00;101471.16;2618102;46;20455;-51
2021/08/13 09:54:30;;;;;;;13.20;9.77;;;;;;;24.51;100.00;101463.16;2636991;36;20867;-48
2021/08/13 09:57:08;;;;;;;17.13;9.50;;;;;;;24.68;100.00;101467.47;2618771;39;20484;-52
2021/08/13 09:59:38;;;;;;;16.50;9.17;;;;;;;24.81;100.00;101466.53;2619014;47;20487;-53
2021/08/13 10:02:15;;;;;;;17.33;9.17;;;;;;;24.69;100.00;101466.59;2619588;46;20444;-50
2021/08/13 10:04:45;;;;;;;16.57;10.43;;;;;;;24.68;100.00;101464.84;2642742;36;20463;-49
2021/08/13 10:07:20;;;;;;;14.50;8.60;;;;;;;24.64;100.00;101458.69;2619286;47;20411;-48
2021/08/13 10:09:52;;;;;;;13.10;8.90;;;;;;;24.58;100.00;101457.84;2618971;46;20415;-54
2021/08/13 10:12:22;;;;;;;12.27;8.83;;;;;;;24.59;100.00;101457.84;2618385;46;20420;-52
2021/08/13 10:14:59;;;;;;;14.47;9.50;;;;;;;24.58;100.00;101455.22;2620534;36;20426;-53
2021/08/13 10:17:29;;;;;;;18.90;9.53;;;;;;;24.53;100.00;101455.25;2619708;46;20383;-50
2021/08/13 10:19:58;;;;;;;15.87;9.80;;;;;;;24.71;100.00;101459.53;2620161;36;20428;-51
2021/08/13 10:22:28;;;;;;;15.13;10.03;;;;;;;25.04;100.00;101451.41;2619754;47;20450;-50
2021/08/13 10:24:59;;;;;;;14.43;9.50;;;;;;;25.01;100.00;101452.31;2636789;36;20464;-50
2021/08/13 10:27:28;;;;;;;17.70;9.60;;;;;;;25.10;100.00;101461.94;2619164;46;20408;-51
2021/08/13 10:29:58;;;;;;;11.63;8.20;;;;;;;25.15;100.00;101453.97;2618711;47;20407;-50
2021/08/13 10:32:27;;;;;;;14.60;8.40;;;;;;;25.01;100.00;101456.75;2619688;46;20435;-50
2021/08/13 10:34:57;;;;;;;15.70;8.53;;;;;;;25.12;100.00;101461.94;2637642;36;20408;-51
2021/08/13 10:37:28;;;;;;;12.63;8.13;;;;;;;25.14;100.00;101457.50;2618095;47;20424;-51
2021/08/13 10:39:59;;;;;;;17.47;8.80;;;;;;;25.08;100.00;101447.88;2619326;39;20736;-52
2021/08/13 10:42:29;;;;;;;14.33;8.83;;;;;;;24.91;100.00;101437.47;2619703;46;20436;-50
2021/08/13 10:45:03;;;;;;;12.53;8.60;;;;;;;25.13;100.00;101432.88;2618966;47;20420;-48
2021/08/13 10:47:37;;;;;;;12.23;8.00;;;;;;;25.03;100.00;101428.56;2619181;54;20424;-51
2021/08/13 10:50:08;;;;;;;11.53;7.20;;;;;;;24.75;100.00;101434.88;2642296;36;20550;-50
2021/08/13 10:52:39;;;;;;;13.70;9.00;;;;;;;24.76;100.00;101438.41;2618412;39;20726;-48
2021/08/13 10:55:11;;;;;;;11.50;7.87;;;;;;;25.05;100.00;101438.22;2618848;36;20201;-52
2021/08/13 10:57:58;;;;;;;15.33;8.93;;;;;;;25.33;100.00;101437.97;2619483;46;20408;-49
2021/08/13 11:00:28;;;;;;;11.93;8.40;;;;;;;25.26;100.00;101427.50;2618969;46;20415;-52
2021/08/13 11:03:20;;;;;;;12.00;8.30;;;;;;;25.38;100.00;101430.00;2618503;46;20408;-49
2021/08/13 11:05:54;;;;;;;12.27;8.30;;;;;;;25.69;100.00;101427.06;2636078;36;20462;-53
2021/08/13 11:08:24;;;;;;;14.43;9.03;;;;;;;25.36;100.00;101429.16;2618497;46;20396;-49
2021/08/13 11:10:59;;;;;;;11.37;7.20;;;;;;;25.02;100.00;101424.19;2617214;47;20460;-51
2021/08/13 11:13:28;;;;;;;11.87;7.77;;;;;;;25.01;100.00;101430.34;2619418;47;20392;-50
2021/08/13 11:15:58;;;;;;;17.33;8.50;;;;;;;25.02;100.00;101429.47;2619448;39;20769;-50
2021/08/13 11:18:29;;;;;;;12.23;9.03;;;;;;;25.26;100.00;101430.13;2619497;47;20446;-53